createdAt,value
2022-11-14T00:00:01.343Z,23.22
2022-11-14T00:03:25.048Z,23.47
2022-11-14T00:06:50.076Z,22.90
2022-11-14T00:10:13.904Z,24.23
2022-11-14T00:13:37.182Z,21.73
2022-11-14T00:17:01.506Z,23.60
2022-11-14T00:20:27.418Z,22.50
2022-11-14T00:23:51.778Z,23.62
2022-11-14T00:27:15.743Z,22.32
2022-11-14T00:30:40.025Z,22.05
2022-11-14T00:34:04.189Z,22.65
2022-11-14T00:37:28.181Z,20.85
2022-11-14T00:40:50.963Z,23.15
2022-11-14T00:44:14.835Z,22.77
2022-11-14T00:47:38.491Z,21.73
2022-11-14T00:51:02.503Z,21.02
2022-11-14T00:54:19.245Z,21.02
2022-11-14T00:57:22.807Z,21.07
2022-11-14T01:00:33.073Z,21.62
2022-11-14T01:03:43.066Z,20.62
2022-11-14T01:07:06.490Z,21.70
2022-11-14T01:10:31.097Z,19.65
2022-11-14T01:13:54.724Z,20.23
2022-11-14T01:17:18.769Z,20.35
2022-11-14T01:20:42.347Z,19.87
2022-11-14T01:24:07.157Z,20.27
2022-11-14T01:27:18.387Z,20.27
2022-11-14T01:30:36.094Z,19.40
2022-11-14T01:33:59.352Z,20.10
2022-11-14T01:37:22.870Z,19.15
2022-11-14T01:40:47.333Z,19.67
2022-11-14T01:44:10.514Z,19.92
2022-11-14T01:47:40.966Z,20.45
2022-11-14T01:51:07.350Z,20.52
2022-11-14T01:54:29.880Z,21.27
2022-11-14T01:57:39.865Z,20.97
2022-11-14T02:00:51.818Z,20.00
2022-11-14T02:03:57.067Z,20.10
2022-11-14T02:07:11.557Z,20.25
2022-11-14T02:10:25.526Z,19.73
2022-11-14T02:13:35.950Z,20.82
2022-11-14T02:17:22.751Z,20.62
2022-11-14T02:20:32.054Z,19.40
2022-11-14T02:23:56.004Z,18.27
2022-11-14T02:27:20.395Z,19.20
2022-11-14T02:30:43.612Z,19.25
2022-11-14T02:34:06.357Z,19.70
2022-11-14T02:37:30.871Z,19.48
2022-11-14T02:40:55.370Z,19.12
2022-11-14T02:44:19.029Z,18.10
2022-11-14T02:47:42.672Z,19.15
2022-11-14T02:51:07.764Z,18.50
2022-11-14T02:54:31.278Z,17.50
2022-11-14T02:57:55.001Z,17.80
2022-11-14T03:01:21.274Z,17.98
2022-11-14T03:04:43.499Z,19.30
2022-11-14T03:08:08.712Z,18.87
2022-11-14T03:11:33.567Z,18.30
2022-11-14T03:14:49.876Z,17.37
2022-11-14T03:18:01.519Z,19.75
2022-11-14T03:21:30.671Z,19.60
2022-11-14T03:24:54.657Z,19.67
2022-11-14T03:28:18.581Z,20.27
2022-11-14T03:31:42.090Z,21.70
2022-11-14T03:35:06.293Z,19.98
2022-11-14T03:38:31.452Z,20.57
2022-11-14T03:41:55.581Z,21.65
2022-11-14T03:45:20.746Z,23.27
2022-11-14T03:48:37.284Z,21.73
2022-11-14T03:55:10.706Z,25.10
2022-11-14T03:58:33.574Z,25.95
2022-11-14T04:01:57.222Z,26.30
2022-11-14T04:05:20.755Z,24.10
2022-11-14T04:08:44.217Z,25.48
2022-11-14T04:12:11.360Z,24.43
2022-11-14T04:15:33.089Z,24.70
2022-11-14T04:18:56.380Z,22.32
2022-11-14T04:22:20.363Z,22.58
2022-11-14T04:25:44.158Z,22.50
2022-11-14T04:29:01.270Z,21.30
2022-11-14T04:35:34.663Z,21.02
2022-11-14T04:38:58.872Z,19.77
2022-11-14T04:42:22.613Z,20.02
2022-11-14T04:45:46.497Z,18.17
2022-11-14T04:49:10.041Z,17.80
2022-11-14T04:52:33.522Z,16.48
2022-11-14T04:55:59.290Z,16.60
2022-11-14T04:59:23.114Z,16.37
2022-11-14T05:02:46.878Z,16.95
2022-11-14T05:06:12.193Z,16.52
2022-11-14T05:09:36.644Z,17.92
2022-11-14T05:12:59.292Z,17.82
2022-11-14T05:16:23.060Z,16.48
2022-11-14T05:19:46.653Z,15.83
2022-11-14T05:23:12.269Z,14.87
2022-11-14T05:26:36.406Z,14.68
2022-11-14T05:30:02.499Z,13.85
2022-11-14T05:33:26.044Z,12.98
2022-11-14T05:36:49.682Z,14.20
2022-11-14T05:40:14.170Z,13.80
2022-11-14T05:43:37.376Z,12.40
2022-11-14T05:47:01.497Z,13.32
2022-11-14T05:50:18.904Z,14.30
2022-11-14T05:53:42.597Z,13.62
2022-11-14T05:57:07.447Z,13.35
2022-11-14T06:00:39.471Z,12.75
2022-11-14T06:03:59.971Z,12.80
2022-11-14T06:07:23.026Z,12.78
2022-11-14T06:10:48.328Z,13.25
2022-11-14T06:14:13.252Z,13.10
2022-11-14T06:17:36.130Z,12.78
2022-11-14T06:21:00.586Z,11.78
2022-11-14T06:24:24.978Z,10.98
2022-11-14T06:27:49.668Z,10.95
2022-11-14T06:31:07.171Z,9.83
2022-11-14T06:34:30.559Z,11.10
2022-11-14T06:37:54.238Z,10.65
2022-11-14T06:41:27.079Z,9.35
2022-11-14T06:44:52.355Z,10.08
2022-11-14T06:48:15.160Z,8.65
2022-11-14T06:51:39.883Z,8.30
2022-11-14T06:55:03.914Z,9.80
2022-11-14T06:58:27.185Z,8.35
2022-11-14T07:01:51.901Z,8.85
2022-11-14T07:05:15.345Z,8.28
2022-11-14T07:08:38.906Z,7.90
2022-11-14T07:11:55.191Z,7.22
2022-11-14T07:15:20.336Z,7.00
2022-11-14T07:18:46.027Z,7.85
2022-11-14T07:22:10.929Z,7.95
2022-11-14T07:25:34.226Z,7.10
2022-11-14T07:29:02.519Z,7.67
2022-11-14T07:32:25.363Z,7.25
2022-11-14T07:35:49.490Z,8.73
2022-11-14T07:39:14.430Z,8.78
2022-11-14T07:42:38.821Z,9.18
2022-11-14T07:45:56.044Z,7.55
2022-11-14T07:49:13.293Z,8.20
2022-11-14T07:52:38.171Z,8.43
2022-11-14T07:56:02.300Z,8.15
2022-11-14T07:59:26.164Z,7.72
2022-11-14T08:02:49.908Z,7.35
2022-11-14T08:06:24.638Z,6.53
2022-11-14T08:09:48.284Z,5.12
2022-11-14T08:13:30.842Z,5.28
2022-11-14T08:16:36.262Z,5.25
2022-11-14T08:20:00.437Z,4.55
2022-11-14T08:23:24.869Z,4.92
2022-11-14T08:26:50.573Z,3.60
2022-11-14T08:30:14.814Z,4.10
2022-11-14T08:33:38.338Z,3.17
2022-11-14T08:37:18.737Z,3.22
2022-11-14T08:40:43.569Z,4.03
2022-11-14T08:44:08.024Z,3.55
2022-11-14T08:47:25.806Z,3.17
2022-11-14T08:50:36.686Z,3.08
2022-11-14T08:53:54.374Z,3.67
2022-11-14T08:57:04.956Z,2.85
2022-11-14T09:00:29.986Z,2.50
2022-11-14T09:03:59.361Z,3.05
2022-11-14T09:07:19.225Z,2.98
2022-11-14T09:10:36.155Z,2.50
2022-11-14T09:14:04.437Z,2.12
2022-11-14T09:17:28.719Z,3.20
2022-11-14T09:20:54.654Z,2.60
2022-11-14T09:24:17.410Z,2.72
2022-11-14T09:27:42.540Z,2.60
2022-11-14T09:31:06.204Z,2.77
2022-11-14T09:34:22.290Z,2.33
2022-11-14T09:37:47.752Z,2.15
2022-11-14T09:41:41.921Z,2.95
2022-11-14T09:45:11.695Z,2.60
2022-11-14T09:48:40.531Z,2.33
2022-11-14T09:52:08.704Z,2.70
2022-11-14T09:55:43.433Z,2.20
2022-11-14T09:59:08.119Z,2.52
2022-11-14T10:02:50.753Z,2.33
2022-11-14T10:06:37.165Z,1.67
2022-11-14T10:10:13.519Z,1.90
2022-11-14T10:13:46.126Z,1.80
2022-11-14T10:17:33.106Z,1.22
2022-11-14T10:21:12.585Z,1.85
2022-11-14T10:25:06.048Z,1.95
2022-11-14T10:28:51.900Z,2.10
2022-11-14T10:32:36.416Z,2.02
2022-11-14T10:36:16.004Z,2.08
2022-11-14T10:39:44.073Z,1.87
2022-11-14T10:43:40.483Z,2.30
2022-11-14T10:47:07.121Z,2.10
2022-11-14T10:50:49.589Z,2.92
2022-11-14T10:54:42.700Z,3.00
2022-11-14T10:58:07.143Z,2.40
2022-11-14T11:05:07.575Z,3.30
2022-11-14T11:08:54.602Z,2.40
2022-11-14T11:12:18.653Z,2.45
2022-11-14T11:15:46.037Z,2.30
2022-11-14T11:19:19.111Z,2.75
2022-11-14T11:22:53.379Z,2.80
2022-11-14T11:26:34.961Z,2.30
2022-11-14T11:30:01.634Z,2.10
2022-11-14T11:33:31.104Z,2.52
2022-11-14T11:36:59.293Z,3.08
2022-11-14T11:40:27.708Z,3.67
2022-11-14T11:44:03.510Z,4.08
2022-11-14T11:47:30.502Z,4.17
2022-11-14T11:50:57.244Z,5.60
2022-11-14T11:54:33.629Z,5.83
2022-11-14T11:58:19.611Z,5.85
2022-11-14T12:01:44.167Z,5.95
2022-11-14T12:04:45.114Z,8.68
2022-11-14T12:08:21.225Z,8.73
2022-11-14T12:11:32.643Z,15.72
2022-11-14T12:15:18.820Z,16.12
2022-11-14T12:19:23.819Z,16.02
2022-11-14T12:22:58.395Z,14.55
2022-11-14T12:26:56.670Z,13.98
2022-11-14T12:30:23.348Z,11.70
2022-11-14T12:33:49.339Z,10.15
2022-11-14T12:37:07.244Z,8.63
2022-11-14T12:40:22.028Z,5.67
2022-11-14T12:43:56.541Z,5.20
2022-11-14T12:47:26.030Z,4.90
2022-11-14T12:50:57.750Z,4.47
2022-11-14T12:54:24.739Z,4.37
2022-11-14T12:57:59.497Z,4.53
2022-11-14T13:01:30.732Z,4.55
2022-11-14T13:05:27.838Z,4.10
2022-11-14T13:09:38.086Z,4.67
2022-11-14T13:17:19.213Z,3.80
2022-11-14T13:21:07.299Z,4.45
2022-11-14T13:24:33.953Z,4.30
2022-11-14T13:28:21.769Z,4.37
2022-11-14T13:31:54.811Z,5.20
2022-11-14T13:35:20.060Z,4.50
2022-11-14T13:39:30.206Z,4.97
2022-11-14T13:43:25.786Z,4.35
2022-11-14T13:47:27.264Z,5.47
2022-11-14T13:50:51.642Z,4.97
2022-11-14T13:54:17.460Z,5.30
2022-11-14T13:57:52.208Z,5.58
2022-11-14T14:01:45.084Z,6.25
2022-11-14T14:05:47.435Z,7.65
2022-11-14T14:09:28.504Z,7.67
2022-11-14T14:13:08.760Z,6.17
2022-11-14T14:16:56.448Z,5.10
2022-11-14T14:20:49.346Z,4.80
2022-11-14T14:24:24.357Z,4.67
2022-11-14T14:27:57.809Z,5.50
2022-11-14T14:31:32.163Z,5.70
2022-11-14T14:34:55.466Z,7.67
2022-11-14T14:38:19.977Z,6.70
2022-11-14T14:41:39.764Z,8.13
2022-11-14T14:45:03.590Z,6.83
2022-11-14T14:48:30.319Z,7.85
2022-11-14T14:51:58.370Z,9.33
2022-11-14T14:55:21.213Z,10.45
2022-11-14T14:58:46.045Z,13.98
2022-11-14T15:02:10.583Z,9.93
2022-11-14T15:05:39.916Z,6.05
2022-11-14T15:09:04.193Z,5.35
2022-11-14T15:12:15.881Z,6.42
2022-11-14T15:15:38.970Z,7.72
2022-11-14T15:19:02.375Z,8.28
2022-11-14T15:22:36.775Z,9.93
2022-11-14T15:26:00.211Z,10.72
2022-11-14T15:29:34.277Z,11.33
2022-11-14T15:33:08.376Z,10.05
2022-11-14T15:36:31.844Z,11.45
2022-11-14T15:39:56.452Z,12.28
2022-11-14T15:44:00.413Z,8.70
2022-11-14T15:47:42.868Z,8.43
2022-11-14T15:51:06.755Z,6.95
2022-11-14T15:54:49.769Z,6.83
2022-11-14T15:58:27.764Z,6.83
2022-11-14T16:01:38.504Z,7.87
2022-11-14T16:05:03.145Z,7.00
2022-11-14T16:08:28.799Z,7.62
2022-11-14T16:11:52.236Z,6.67
2022-11-14T16:15:16.541Z,6.55
2022-11-14T16:18:40.971Z,6.37
2022-11-14T16:22:05.666Z,5.92
2022-11-14T16:25:38.541Z,7.35
2022-11-14T16:29:03.563Z,7.75
2022-11-14T16:32:26.270Z,8.98
2022-11-14T16:35:49.291Z,9.88
2022-11-14T16:39:17.621Z,10.45
2022-11-14T16:42:41.151Z,11.05
2022-11-14T16:46:04.609Z,11.53
2022-11-14T16:49:29.772Z,12.07
2022-11-14T16:52:53.478Z,13.98
2022-11-14T16:56:19.678Z,15.43
2022-11-14T16:59:42.704Z,12.03
2022-11-14T17:03:05.603Z,9.63
2022-11-14T17:06:28.195Z,8.53
2022-11-14T17:09:52.409Z,9.48
2022-11-14T17:13:21.636Z,8.93
2022-11-14T17:16:43.706Z,9.25
2022-11-14T17:20:00.525Z,9.60
2022-11-14T17:23:26.011Z,11.08
2022-11-14T17:26:50.480Z,15.80
2022-11-14T17:30:14.228Z,16.60
2022-11-14T17:33:38.198Z,20.48
2022-11-14T17:37:01.966Z,20.45
2022-11-14T17:40:19.486Z,19.15
2022-11-14T17:43:38.405Z,17.98
2022-11-14T17:46:57.830Z,15.30
2022-11-14T17:50:21.276Z,14.40
2022-11-14T17:53:46.095Z,13.35
2022-11-14T17:57:10.658Z,13.98
2022-11-14T18:00:34.472Z,13.95
2022-11-14T18:04:04.533Z,13.38
2022-11-14T18:07:23.676Z,14.03
2022-11-14T18:10:49.806Z,14.30
2022-11-14T18:14:14.099Z,15.15
2022-11-14T18:17:39.306Z,12.95
2022-11-14T18:21:02.003Z,15.53
2022-11-14T18:24:27.132Z,14.10
2022-11-14T18:27:51.363Z,13.30
2022-11-14T18:31:17.667Z,13.20
2022-11-14T18:34:43.306Z,14.75
2022-11-14T18:38:07.465Z,13.65
2022-11-14T18:41:26.173Z,14.85
2022-11-14T18:44:30.419Z,14.35
2022-11-14T18:47:40.478Z,15.72
2022-11-14T18:50:50.817Z,17.02
2022-11-14T18:54:14.457Z,18.52
2022-11-14T18:57:37.969Z,19.02
2022-11-14T19:01:02.411Z,20.55
2022-11-14T19:04:26.943Z,19.45
2022-11-14T19:07:50.431Z,18.62
2022-11-14T19:11:39.763Z,18.27
2022-11-14T19:14:58.624Z,18.25
2022-11-14T19:18:22.961Z,20.15
2022-11-14T19:21:45.267Z,18.15
2022-11-14T19:25:10.190Z,17.07
2022-11-14T19:28:33.373Z,16.75
2022-11-14T19:31:57.971Z,15.45
2022-11-14T19:35:22.267Z,16.75
2022-11-14T19:38:45.176Z,15.78
2022-11-14T19:42:03.571Z,17.80
2022-11-14T19:45:14.130Z,17.62
2022-11-14T19:48:37.922Z,18.87
2022-11-14T19:51:55.676Z,19.15
2022-11-14T19:55:12.381Z,19.55
2022-11-14T19:58:37.234Z,21.50
2022-11-14T20:02:01.890Z,19.40
2022-11-14T20:05:26.172Z,18.48
2022-11-14T20:08:49.974Z,18.52
2022-11-14T20:12:16.121Z,16.15
2022-11-14T20:15:38.826Z,16.45
2022-11-14T20:19:03.447Z,16.90
2022-11-14T20:22:26.687Z,19.52
2022-11-14T20:25:51.682Z,18.17
2022-11-14T20:29:14.799Z,18.98
2022-11-14T20:32:37.429Z,17.12
2022-11-14T20:36:01.069Z,18.17
2022-11-14T20:39:25.422Z,21.20
2022-11-14T20:42:49.748Z,19.60
2022-11-14T20:46:21.106Z,21.87
2022-11-14T20:49:44.769Z,19.87
2022-11-14T20:53:07.936Z,21.05
2022-11-14T20:56:32.300Z,23.32
2022-11-14T20:59:55.429Z,32.03
2022-11-14T21:03:18.613Z,20.27
2022-11-14T21:06:42.342Z,21.33
2022-11-14T21:10:24.784Z,19.48
2022-11-14T21:14:03.342Z,19.67
2022-11-14T21:17:21.427Z,18.25
2022-11-14T21:20:45.624Z,20.85
2022-11-14T21:24:10.077Z,18.52
2022-11-14T21:27:33.060Z,19.37
2022-11-14T21:30:56.668Z,21.33
2022-11-14T21:34:25.023Z,21.48
2022-11-14T21:37:48.474Z,22.90
2022-11-14T21:41:12.240Z,23.67
2022-11-14T21:44:36.654Z,21.57
2022-11-14T21:48:00.602Z,23.47
2022-11-14T21:51:30.133Z,21.52
2022-11-14T21:54:53.730Z,24.55
2022-11-14T21:58:19.920Z,22.15
2022-11-14T22:02:01.549Z,24.23
2022-11-14T22:05:18.046Z,24.25
2022-11-14T22:08:35.103Z,24.37
2022-11-14T22:11:59.251Z,22.73
2022-11-14T22:15:23.670Z,25.97
2022-11-14T22:18:41.146Z,24.47
2022-11-14T22:21:46.752Z,25.60
2022-11-14T22:24:56.957Z,21.62
2022-11-14T22:28:04.037Z,22.17
2022-11-14T22:31:29.371Z,22.22
2022-11-14T22:34:39.454Z,23.07
2022-11-14T22:38:02.161Z,22.70
2022-11-14T22:41:33.399Z,24.47
2022-11-14T22:44:58.518Z,22.55
2022-11-14T22:48:22.258Z,22.45
2022-11-14T22:51:46.567Z,21.23
2022-11-14T22:55:15.247Z,23.35
2022-11-14T22:58:35.338Z,22.45
2022-11-14T23:01:59.530Z,22.87
2022-11-14T23:05:24.174Z,23.73
2022-11-14T23:08:47.836Z,21.48
2022-11-14T23:12:05.008Z,23.50
2022-11-14T23:15:28.653Z,23.80
2022-11-14T23:18:53.621Z,23.18
2022-11-14T23:22:17.422Z,22.35
2022-11-14T23:25:40.718Z,24.23
2022-11-14T23:29:03.953Z,23.05
2022-11-14T23:32:27.717Z,24.87
2022-11-14T23:35:51.928Z,26.23
2022-11-14T23:39:15.577Z,27.05
2022-11-14T23:42:40.601Z,23.50
2022-11-14T23:45:57.490Z,23.27
2022-11-14T23:49:21.357Z,26.07
2022-11-14T23:52:46.821Z,23.10
2022-11-14T23:56:11.981Z,22.35
2022-11-14T23:59:35.318Z,23.07
